Time;durP1;ratioP1;P1;durP2;ratioP2;P2;SDS_P1;SDS_P2;PMS_P1;PMS_P2;Temp;Humidity;BMP_temperature;BMP_pressure;BME280_temperature;BME280_humidity;BME280_pressure;Samples;Min_cycle;Max_cycle;Signal;HPM_P1;HPM_P2
2021/05/27 00:00:44;;;;;;;6.55;2.22;;;19.30;41.70;;;;;;4402798;32;20148;-36
2021/05/27 00:03:11;;;;;;;10.13;1.65;;;19.30;41.80;;;;;;4403614;32;20085;-36
2021/05/27 00:05:37;;;;;;;2.95;1.52;;;19.30;41.10;;;;;;4405690;32;20065;-36
2021/05/27 00:08:04;;;;;;;5.97;1.95;;;19.30;40.80;;;;;;4405587;32;20096;-37
2021/05/27 00:10:32;;;;;;;4.90;1.77;;;19.30;40.70;;;;;;4391686;32;20516;-37
2021/05/27 00:12:59;;;;;;;2.95;1.80;;;19.30;40.50;;;;;;4405730;32;20060;-37
2021/05/27 00:15:28;;;;;;;3.80;1.60;;;19.30;40.50;;;;;;4391360;32;20516;-37
2021/05/27 00:17:54;;;;;;;10.60;2.55;;;19.30;40.50;;;;;;4405391;32;20484;-38
2021/05/27 00:20:21;;;;;;;3.20;1.80;;;19.30;40.40;;;;;;4402898;32;20558;-38
2021/05/27 00:22:48;;;;;;;3.62;1.77;;;19.20;40.40;;;;;;4390433;32;20131;-37
2021/05/27 00:25:15;;;;;;;5.45;1.92;;;19.20;40.60;;;;;;4390392;32;20153;-37
2021/05/27 00:27:44;;;;;;;3.75;1.40;;;19.20;40.50;;;;;;4390398;32;20592;-37
2021/05/27 00:30:11;;;;;;;2.95;1.50;;;19.20;40.50;;;;;;4376210;32;20093;-37
2021/05/27 00:32:38;;;;;;;4.47;2.22;;;19.10;40.40;;;;;;4390012;32;20070;-37
2021/05/27 00:35:05;;;;;;;6.60;1.77;;;19.10;40.40;;;;;;4376066;32;20150;-37
2021/05/27 00:37:32;;;;;;;5.65;2.50;;;19.00;40.30;;;;;;4389971;32;20652;-37
2021/05/27 00:39:59;;;;;;;2.45;1.42;;;19.00;40.30;;;;;;4389968;32;20248;-37
2021/05/27 00:42:25;;;;;;;2.37;1.85;;;18.90;40.40;;;;;;4390139;32;20086;-38
2021/05/27 00:45:09;;;;;;;2.50;1.40;;;18.80;40.50;;;;;;4390030;32;20457;-36
2021/05/27 00:47:36;;;;;;;5.03;1.55;;;18.70;40.70;;;;;;4377327;32;20073;-37
2021/05/27 00:50:04;;;;;;;2.62;1.67;;;18.60;40.70;;;;;;4376162;32;20081;-37
2021/05/27 00:52:31;;;;;;;3.83;1.60;;;18.50;40.80;;;;;;4390194;32;20069;-37
2021/05/27 00:54:59;;;;;;;2.92;1.23;;;18.40;41.00;;;;;;4389783;32;20069;-37
2021/05/27 00:57:36;;;;;;;4.75;1.42;;;18.30;41.20;;;;;;4375808;32;20529;-36
2021/05/27 01:00:12;;;;;;;3.65;1.83;;;18.20;41.60;;;;;;4391285;32;20113;-38
2021/05/27 01:02:38;;;;;;;2.08;1.40;;;18.10;41.90;;;;;;4393110;32;20641;-37
2021/05/27 01:05:08;;;;;;;5.30;1.70;;;18.00;42.00;;;;;;4391958;32;20066;-36
2021/05/27 01:07:34;;;;;;;6.80;1.65;;;18.00;42.10;;;;;;4364296;32;20078;-37
2021/05/27 01:10:01;;;;;;;4.22;1.45;;;18.00;42.40;;;;;;4389735;32;20150;-36
2021/05/27 01:12:27;;;;;;;4.30;1.77;;;18.10;42.60;;;;;;4389505;32;20172;-37
2021/05/27 01:17:38;;;;;;;4.65;1.80;;;18.30;42.30;;;;;;4389162;32;20462;-38
2021/05/27 01:20:08;;;;;;;4.22;1.10;;;18.40;41.90;;;;;;4376508;32;20066;-43
2021/05/27 01:22:34;;;;;;;3.50;1.62;;;18.50;41.90;;;;;;4404511;32;20150;-37
2021/05/27 01:25:01;;;;;;;3.75;1.42;;;18.60;41.90;;;;;;4390558;32;20107;-37
2021/05/27 01:27:27;;;;;;;2.35;1.40;;;18.60;41.90;;;;;;4404439;32;20076;-37
2021/05/27 01:29:54;;;;;;;6.78;3.60;;;18.60;41.90;;;;;;4404406;32;20061;-37
2021/05/27 01:32:21;;;;;;;8.57;1.85;;;18.70;42.00;;;;;;4390554;32;20069;-36
2021/05/27 01:34:47;;;;;;;4.37;1.50;;;18.80;42.10;;;;;;4404579;32;20166;-38
2021/05/27 01:37:14;;;;;;;7.62;3.12;;;19.00;42.00;;;;;;4404174;32;20101;-38
2021/05/27 01:39:48;;;;;;;7.12;1.35;;;19.20;41.80;;;;;;4404219;32;20057;-37
2021/05/27 01:42:15;;;;;;;9.48;4.72;;;19.60;41.60;;;;;;4404618;32;20100;-38
2021/05/27 01:44:42;;;;;;;11.68;2.33;;;20.00;41.20;;;;;;4404451;32;20057;-38
2021/05/27 01:47:08;;;;;;;7.07;3.25;;;20.50;40.50;;;;;;4404560;32;20065;-38
2021/05/27 01:49:40;;;;;;;18.80;10.30;;;21.00;40.00;;;;;;4390468;32;20080;-39
2021/05/27 01:52:07;;;;;;;6.80;1.98;;;21.50;39.40;;;;;;4404076;32;20152;-38
2021/05/27 01:54:33;;;;;;;4.03;2.87;;;22.00;38.70;;;;;;4401684;32;20089;-39
2021/05/27 01:57:00;;;;;;;5.97;1.85;;;22.40;37.90;;;;;;4401905;32;20144;-38
2021/05/27 01:59:26;;;;;;;12.48;2.70;;;22.70;37.40;;;;;;4401664;32;20119;-37
2021/05/27 02:01:54;;;;;;;5.80;1.95;;;23.00;36.90;;;;;;4388950;32;20518;-38
2021/05/27 02:04:20;;;;;;;7.75;1.87;;;23.30;36.50;;;;;;4389184;32;20167;-39
2021/05/27 02:06:47;;;;;;;6.40;1.45;;;23.70;36.10;;;;;;4401691;32;20069;-38
2021/05/27 02:09:13;;;;;;;18.80;4.45;;;24.10;35.50;;;;;;4401801;32;20526;-38
2021/05/27 02:11:42;;;;;;;11.57;3.62;;;24.50;34.80;;;;;;4401363;32;20089;-39
2021/05/27 02:14:10;;;;;;;11.57;2.30;;;25.00;34.20;;;;;;4389092;32;20530;-39
2021/05/27 02:16:37;;;;;;;8.23;2.12;;;25.60;33.60;;;;;;4401794;32;20073;-39
2021/05/27 02:19:04;;;;;;;10.15;1.75;;;26.10;32.80;;;;;;4401195;32;20194;-39
2021/05/27 02:21:31;;;;;;;4.70;1.80;;;26.50;32.20;;;;;;4391373;32;20146;-39
2021/05/27 02:23:59;;;;;;;9.93;1.98;;;26.90;31.70;;;;;;4386119;32;20066;-40
2021/05/27 02:26:27;;;;;;;6.87;2.30;;;27.30;31.50;;;;;;4386083;32;20114;-38
2021/05/27 02:28:54;;;;;;;9.77;2.55;;;27.80;30.90;;;;;;4373730;32;20062;-39
2021/05/27 02:31:21;;;;;;;15.85;2.87;;;28.20;30.30;;;;;;4373850;32;20058;-40
2021/05/27 02:33:48;;;;;;;19.80;2.58;;;28.70;29.90;;;;;;4388713;32;20173;-40
2021/05/27 02:36:15;;;;;;;11.05;2.78;;;29.00;29.50;;;;;;4374623;32;20127;-39
2021/05/27 02:38:41;;;;;;;7.18;2.10;;;29.30;29.40;;;;;;4374509;32;20076;-39
2021/05/27 02:41:08;;;;;;;6.55;2.67;;;29.70;29.50;;;;;;4388462;32;20081;-39
2021/05/27 02:43:34;;;;;;;5.10;2.22;;;29.90;29.30;;;;;;4374283;32;20649;-39
2021/05/27 02:46:01;;;;;;;10.27;1.95;;;30.10;29.20;;;;;;4374465;32;20053;-39
2021/05/27 02:48:31;;;;;;;9.60;2.33;;;30.30;29.10;;;;;;4388561;32;20066;-40
2021/05/27 02:50:58;;;;;;;7.32;2.17;;;30.50;29.00;;;;;;4388748;32;20068;-39
2021/05/27 02:53:25;;;;;;;7.85;2.95;;;30.60;28.90;;;;;;4388641;32;20604;-40
2021/05/27 02:55:52;;;;;;;9.38;3.28;;;30.60;28.70;;;;;;4388435;32;20062;-40
2021/05/27 02:58:19;;;;;;;15.68;3.87;;;30.60;28.60;;;;;;4388112;32;20081;-39
2021/05/27 03:00:45;;;;;;;10.40;3.47;;;30.50;28.60;;;;;;4387903;32;20092;-41
2021/05/27 03:03:13;;;;;;;12.70;3.45;;;30.50;28.70;;;;;;4387872;32;20513;-40
2021/05/27 03:05:39;;;;;;;9.48;3.17;;;30.70;28.70;;;;;;4374452;32;20115;-40
2021/05/27 03:08:06;;;;;;;11.48;3.37;;;30.80;28.60;;;;;;4374361;32;20074;-41
2021/05/27 03:10:32;;;;;;;9.30;3.47;;;31.10;28.50;;;;;;4388223;32;20066;-41
2021/05/27 03:12:58;;;;;;;9.38;3.17;;;31.20;28.20;;;;;;4388092;32;20050;-40
2021/05/27 03:15:25;;;;;;;13.13;3.33;;;31.40;28.10;;;;;;4387841;32;20063;-41
2021/05/27 03:17:51;;;;;;;12.88;4.45;;;31.50;28.00;;;;;;4388293;32;20073;-41
2021/05/27 03:20:18;;;;;;;12.20;4.12;;;31.70;27.70;;;;;;4389796;32;20093;-40
2021/05/27 03:22:44;;;;;;;15.52;4.40;;;31.80;26.60;;;;;;4388645;32;20062;-40
2021/05/27 03:25:12;;;;;;;7.82;3.62;;;31.70;26.60;;;;;;4402952;32;20067;-40
2021/05/27 03:27:38;;;;;;;12.00;3.80;;;31.60;26.40;;;;;;4388757;32;20148;-40
2021/05/27 03:30:06;;;;;;;10.48;4.25;;;31.40;26.30;;;;;;4403264;32;20135;-40
2021/05/27 03:32:32;;;;;;;9.98;3.55;;;31.30;26.50;;;;;;4402715;32;20072;-40
2021/05/27 03:34:59;;;;;;;7.93;3.70;;;31.10;26.50;;;;;;4403441;32;20089;-39
2021/05/27 03:37:25;;;;;;;9.02;3.85;;;31.00;26.50;;;;;;4388925;32;20528;-40
2021/05/27 03:40:13;;;;;;;8.93;4.00;;;30.80;26.70;;;;;;4405720;32;20147;-40
2021/05/27 03:42:45;;;;;;;8.98;4.50;;;30.60;26.70;;;;;;4405841;32;20071;-40
2021/05/27 03:45:37;;;;;;;12.80;4.37;;;30.50;26.80;;;;;;4405824;32;20533;-40
2021/05/27 03:48:04;;;;;;;10.80;3.97;;;30.40;26.90;;;;;;4405695;32;20079;-40
2021/05/27 03:50:31;;;;;;;11.23;4.43;;;30.20;26.80;;;;;;4406333;32;20101;-40
2021/05/27 03:53:01;;;;;;;9.77;5.12;;;30.10;27.00;;;;;;4391980;32;20061;-39
2021/05/27 03:55:28;;;;;;;10.52;5.40;;;30.10;27.10;;;;;;4406215;32;20100;-40
2021/05/27 03:57:54;;;;;;;9.32;5.07;;;30.00;27.20;;;;;;4391773;32;20069;-40
2021/05/27 04:03:08;;;;;;;12.48;3.53;;;29.90;27.30;;;;;;4394057;32;20430;-40
2021/05/27 04:08:20;;;;;;;15.40;6.05;;;30.00;27.30;;;;;;4393493;32;20072;-40
2021/05/27 04:10:47;;;;;;;5.32;3.10;;;30.10;27.30;;;;;;4405390;32;20172;-40
2021/05/27 04:13:13;;;;;;;6.62;4.18;;;30.30;27.10;;;;;;4405762;32;20173;-40
2021/05/27 04:15:41;;;;;;;15.13;4.90;;;30.50;26.90;;;;;;4405547;32;20080;-41
2021/05/27 04:18:17;;;;;;;8.05;3.95;;;30.70;26.80;;;;;;4405149;32;20505;-40
2021/05/27 04:20:52;;;;;;;10.90;4.45;;;30.90;26.70;;;;;;4400683;32;20076;-39
2021/05/27 04:23:36;;;;;;;12.27;5.85;;;31.10;26.60;;;;;;4390330;32;20074;-41
2021/05/27 04:26:08;;;;;;;17.02;7.87;;;31.30;27.80;;;;;;4377847;32;20082;-41
2021/05/27 04:28:36;;;;;;;19.50;9.10;;;31.80;28.00;;;;;;4390166;32;20149;-41
2021/05/27 04:31:12;;;;;;;13.50;8.30;;;32.30;28.00;;;;;;4390634;32;20162;-41
2021/05/27 04:33:43;;;;;;;16.48;8.45;;;32.70;27.60;;;;;;4390398;32;20078;-39
2021/05/27 04:36:13;;;;;;;22.02;10.00;;;33.00;27.20;;;;;;4390267;32;20070;-40
2021/05/27 04:38:40;;;;;;;23.33;10.63;;;33.20;27.20;;;;;;4390373;32;20069;-40
2021/05/27 04:41:07;;;;;;;18.70;10.48;;;33.30;27.20;;;;;;4375871;32;20167;-40
2021/05/27 04:43:39;;;;;;;21.05;12.52;;;33.30;27.20;;;;;;4390498;32;20076;-40
2021/05/27 04:46:06;;;;;;;29.50;14.77;;;33.30;27.10;;;;;;4390361;32;20073;-40
2021/05/27 04:48:32;;;;;;;28.55;12.85;;;33.40;27.00;;;;;;4389657;32;20073;-41
2021/05/27 04:50:59;;;;;;;24.52;11.93;;;33.60;26.20;;;;;;4389813;32;20527;-40
2021/05/27 04:53:26;;;;;;;22.62;13.55;;;33.70;26.10;;;;;;4375915;32;20093;-41
2021/05/27 04:55:53;;;;;;;16.45;10.07;;;33.80;26.20;;;;;;4375773;32;20081;-41
2021/05/27 04:58:20;;;;;;;14.90;10.80;;;34.00;25.60;;;;;;4375829;32;20524;-40
2021/05/27 05:00:47;;;;;;;22.90;12.60;;;34.00;25.50;;;;;;4389735;32;20163;-41
2021/05/27 05:03:14;;;;;;;31.02;12.45;;;34.00;25.70;;;;;;4389718;32;20137;-40
2021/05/27 05:05:41;;;;;;;16.92;9.18;;;34.10;25.80;;;;;;4390275;32;20073;-40
2021/05/27 05:08:07;;;;;;;13.13;8.95;;;34.10;25.40;;;;;;4375778;32;20100;-41
2021/05/27 05:10:34;;;;;;;21.48;9.95;;;34.00;25.30;;;;;;4375729;32;20070;-40
2021/05/27 05:13:01;;;;;;;26.12;9.55;;;34.00;25.40;;;;;;4363023;32;20502;-40
2021/05/27 05:15:35;;;;;;;16.00;8.93;;;33.90;25.60;;;;;;4389500;32;20077;-39
2021/05/27 05:18:04;;;;;;;19.02;10.10;;;33.70;25.40;;;;;;4376209;32;20077;-40
2021/05/27 05:20:33;;;;;;;19.17;9.55;;;33.60;25.70;;;;;;4393006;32;20068;-41
2021/05/27 05:23:00;;;;;;;18.60;8.88;;;33.60;25.70;;;;;;4405026;32;20149;-41
2021/05/27 05:25:27;;;;;;;15.38;8.82;;;33.70;25.70;;;;;;4390615;32;20066;-41
2021/05/27 05:27:54;;;;;;;15.85;8.48;;;33.80;25.60;;;;;;4390144;32;20065;-41
2021/05/27 05:30:22;;;;;;;12.40;8.45;;;34.00;25.40;;;;;;4404767;32;20065;-41
2021/05/27 05:32:48;;;;;;;17.55;9.85;;;34.20;25.30;;;;;;4404491;32;20085;-41
2021/05/27 05:35:16;;;;;;;21.35;11.15;;;34.00;25.00;;;;;;4404454;32;20077;-41
2021/05/27 05:37:43;;;;;;;19.08;9.52;;;33.60;25.10;;;;;;4404311;32;20128;-41
2021/05/27 05:40:11;;;;;;;19.00;9.98;;;33.40;25.40;;;;;;4404456;32;20156;-41
2021/05/27 05:42:41;;;;;;;17.70;9.93;;;33.40;25.40;;;;;;4404102;32;20094;-41
2021/05/27 05:45:10;;;;;;;16.00;9.35;;;33.40;25.50;;;;;;4373666;32;20093;-41
2021/05/27 05:47:36;;;;;;;15.15;9.13;;;33.50;25.50;;;;;;4386406;32;20066;-41
2021/05/27 05:50:04;;;;;;;20.15;10.57;;;33.60;25.60;;;;;;4386142;32;20586;-42
2021/05/27 05:52:31;;;;;;;23.40;10.02;;;33.70;25.60;;;;;;4386504;32;20076;-41
2021/05/27 05:54:57;;;;;;;22.45;11.50;;;33.70;25.80;;;;;;4386417;32;20183;-40
2021/05/27 05:57:24;;;;;;;20.02;11.75;;;33.70;25.70;;;;;;4374231;32;20097;-41
2021/05/27 05:59:50;;;;;;;21.12;11.25;;;33.80;25.60;;;;;;4386603;32;20066;-41
2021/05/27 06:02:17;;;;;;;19.10;11.23;;;33.80;25.80;;;;;;4385693;32;20149;-41
2021/05/27 06:04:43;;;;;;;16.20;10.23;;;33.80;26.30;;;;;;4386569;32;20061;-40
2021/05/27 06:07:10;;;;;;;14.10;9.30;;;33.70;26.00;;;;;;4386326;32;20061;-42
2021/05/27 06:09:36;;;;;;;15.32;9.35;;;33.60;26.00;;;;;;4386281;32;20054;-40
2021/05/27 06:12:03;;;;;;;18.30;9.30;;;33.40;26.00;;;;;;4386099;32;20079;-40
2021/05/27 06:14:32;;;;;;;17.05;11.38;;;33.00;26.00;;;;;;4385976;32;20753;-40
2021/05/27 06:16:58;;;;;;;12.93;9.82;;;32.80;25.90;;;;;;4401192;32;20073;-40
2021/05/27 06:19:25;;;;;;;16.83;7.35;;;32.70;26.10;;;;;;4404047;32;20094;-41
2021/05/27 06:21:52;;;;;;;15.07;8.70;;;32.80;26.40;;;;;;4377555;32;20062;-40
2021/05/27 06:24:18;;;;;;;17.30;10.80;;;32.90;26.00;;;;;;4388427;32;20077;-40
2021/05/27 06:26:45;;;;;;;14.10;8.05;;;33.20;25.70;;;;;;4370668;32;20257;-41
2021/05/27 06:29:11;;;;;;;11.82;7.93;;;33.50;26.00;;;;;;4371018;32;20080;-41
2021/05/27 06:31:38;;;;;;;10.57;6.72;;;33.70;25.80;;;;;;4371368;32;20066;-40
2021/05/27 06:34:05;;;;;;;15.77;8.10;;;33.80;25.60;;;;;;4370871;32;20155;-41
2021/05/27 06:36:32;;;;;;;19.48;7.72;;;33.70;25.50;;;;;;4370633;32;20580;-40
2021/05/27 06:38:59;;;;;;;10.23;6.57;;;33.50;25.50;;;;;;4370829;32;20085;-41
2021/05/27 06:41:25;;;;;;;12.73;8.57;;;33.60;25.50;;;;;;4370674;32;20493;-41
2021/05/27 06:43:52;;;;;;;9.68;7.15;;;33.80;25.40;;;;;;4358208;32;20077;-41
2021/05/27 06:46:19;;;;;;;9.93;5.93;;;33.90;25.70;;;;;;4358102;32;20058;-42
2021/05/27 06:48:45;;;;;;;12.77;7.37;;;33.70;25.90;;;;;;4371000;32;20149;-40
2021/05/27 06:51:12;;;;;;;7.32;6.18;;;33.50;26.10;;;;;;4370962;32;20117;-41
2021/05/27 06:53:38;;;;;;;9.65;7.70;;;33.40;26.40;;;;;;4370778;32;20622;-41
2021/05/27 06:56:04;;;;;;;14.70;7.25;;;33.30;25.90;;;;;;4370283;32;20200;-39
2021/05/27 06:58:31;;;;;;;10.13;6.97;;;33.20;25.80;;;;;;4384984;32;20154;-41
2021/05/27 07:00:57;;;;;;;10.43;8.15;;;33.10;25.70;;;;;;4388475;32;20074;-40
2021/05/27 07:03:24;;;;;;;8.90;6.80;;;32.80;25.70;;;;;;4387886;32;20070;-40
2021/05/27 07:05:50;;;;;;;9.32;6.82;;;32.80;26.10;;;;;;4388070;32;20140;-41
2021/05/27 07:08:17;;;;;;;10.77;7.03;;;32.50;26.50;;;;;;4388350;32;20133;-40
2021/05/27 07:10:44;;;;;;;15.50;8.63;;;32.20;26.60;;;;;;4388076;32;20104;-41
2021/05/27 07:13:11;;;;;;;9.18;7.80;;;31.90;26.80;;;;;;4387878;32;20558;-40
2021/05/27 07:15:38;;;;;;;14.02;7.40;;;31.60;26.40;;;;;;4387850;32;20061;-41
2021/05/27 07:18:05;;;;;;;11.35;7.82;;;31.20;26.80;;;;;;4388343;32;20068;-40
2021/05/27 07:20:33;;;;;;;11.88;8.10;;;30.90;26.80;;;;;;4358616;32;20097;-40
2021/05/27 07:23:00;;;;;;;12.25;7.30;;;30.80;26.70;;;;;;4358502;32;20086;-40
2021/05/27 07:25:27;;;;;;;6.97;5.22;;;30.80;26.90;;;;;;4370356;32;20157;-41
2021/05/27 07:27:54;;;;;;;6.78;4.87;;;30.80;26.90;;;;;;4358167;32;20064;-41
2021/05/27 07:30:21;;;;;;;7.22;4.28;;;30.70;26.90;;;;;;4370292;32;20572;-39
2021/05/27 07:32:48;;;;;;;5.60;3.87;;;30.70;26.70;;;;;;4370189;32;20588;-41
2021/05/27 07:35:15;;;;;;;7.22;4.03;;;30.70;26.60;;;;;;4370305;32;20212;-40
2021/05/27 07:37:41;;;;;;;8.07;4.97;;;30.90;26.60;;;;;;4358079;32;20069;-40
2021/05/27 07:40:09;;;;;;;4.55;4.10;;;31.00;26.40;;;;;;4370170;32;20062;-41
2021/05/27 07:42:35;;;;;;;10.23;4.03;;;31.10;26.60;;;;;;4370208;32;20556;-39
2021/05/27 07:45:05;;;;;;;5.65;4.85;;;31.10;26.40;;;;;;4357643;32;20550;-42
2021/05/27 07:47:32;;;;;;;5.35;4.60;;;31.30;26.20;;;;;;4369795;32;20201;-41
2021/05/27 07:50:02;;;;;;;6.43;5.10;;;31.40;26.00;;;;;;4370334;32;20097;-40
2021/05/27 07:52:29;;;;;;;13.75;5.00;;;31.50;26.20;;;;;;4370035;32;20130;-41
2021/05/27 07:54:55;;;;;;;8.82;5.82;;;31.40;25.70;;;;;;4370093;32;20058;-41
2021/05/27 07:57:22;;;;;;;9.13;5.60;;;31.30;26.00;;;;;;4378118;32;20069;-41
2021/05/27 07:59:48;;;;;;;7.72;5.20;;;31.20;25.80;;;;;;4388289;32;20076;-40
2021/05/27 08:02:15;;;;;;;10.80;3.90;;;31.10;25.90;;;;;;4403299;32;20064;-40
2021/05/27 08:04:42;;;;;;;5.55;4.93;;;31.10;26.00;;;;;;4402967;32;20108;-40
2021/05/27 08:07:12;;;;;;;7.85;3.90;;;31.20;26.30;;;;;;4402655;32;20548;-40
2021/05/27 08:09:39;;;;;;;3.65;3.28;;;31.00;26.10;;;;;;4402876;32;20537;-40
2021/05/27 08:12:08;;;;;;;8.50;3.83;;;30.90;26.10;;;;;;4389083;32;20079;-41
2021/05/27 08:14:35;;;;;;;8.50;3.70;;;30.90;25.80;;;;;;4388823;32;20069;-40
2021/05/27 08:17:02;;;;;;;6.65;5.15;;;30.90;25.70;;;;;;4402608;32;20133;-40
2021/05/27 08:19:28;;;;;;;9.02;4.80;;;31.00;25.90;;;;;;4402900;32;20081;-41
2021/05/27 08:21:55;;;;;;;4.60;4.05;;;31.10;26.10;;;;;;4389962;32;20058;-40
2021/05/27 08:24:21;;;;;;;4.05;3.22;;;31.30;26.10;;;;;;4374251;32;20069;-40
2021/05/27 08:26:48;;;;;;;8.70;3.90;;;31.40;25.80;;;;;;4389915;32;20105;-40
2021/05/27 08:29:14;;;;;;;8.43;3.10;;;31.50;25.70;;;;;;4389953;32;20058;-40
2021/05/27 08:31:41;;;;;;;5.68;3.67;;;31.80;26.20;;;;;;4389816;32;20539;-40
2021/05/27 08:34:08;;;;;;;6.62;3.72;;;32.20;25.70;;;;;;4376008;32;20351;-41
2021/05/27 08:36:35;;;;;;;7.03;3.58;;;32.50;24.80;;;;;;4390506;32;20073;-41
2021/05/27 08:39:03;;;;;;;5.12;3.87;;;32.80;25.00;;;;;;4390254;32;20454;-41
2021/05/27 08:41:29;;;;;;;8.05;2.87;;;33.00;24.90;;;;;;4376031;32;20070;-41
2021/05/27 08:43:56;;;;;;;5.75;3.37;;;33.10;25.10;;;;;;4390368;32;20073;-40
2021/05/27 08:46:22;;;;;;;4.95;4.22;;;33.10;24.90;;;;;;4363408;32;20065;-40
2021/05/27 08:48:49;;;;;;;4.28;2.50;;;33.10;24.30;;;;;;4389977;32;20066;-41
2021/05/27 08:51:15;;;;;;;8.38;4.15;;;33.10;24.70;;;;;;4390579;32;20073;-40
2021/05/27 08:53:42;;;;;;;4.47;2.47;;;33.20;24.70;;;;;;4375946;32;20076;-40
2021/05/27 08:56:08;;;;;;;0.93;0.47;;;33.20;24.50;;;;;;4363121;32;20074;-41
2021/05/27 08:58:35;;;;;;;4.93;2.83;;;33.20;24.00;;;;;;4389589;32;20065;-41
2021/05/27 09:01:01;;;;;;;3.42;1.87;;;33.40;24.30;;;;;;4389663;32;20070;-40
2021/05/27 09:03:44;;;;;;;2.62;0.52;;;33.40;24.60;;;;;;4389637;32;20493;-41
2021/05/27 09:06:11;;;;;;;7.90;1.08;;;33.50;24.00;;;;;;4389796;32;20077;-42
2021/05/27 09:08:39;;;;;;;6.25;0.95;;;33.50;24.50;;;;;;4390104;32;20175;-46
2021/05/27 09:11:22;;;;;;;7.43;1.27;;;33.70;25.00;;;;;;4389743;32;20073;-42
2021/05/27 09:14:01;;;;;;;2.67;0.40;;;34.10;24.70;;;;;;4390050;32;20081;-42
2021/05/27 09:16:28;;;;;;;0.50;0.10;;;34.70;23.50;;;;;;4389567;32;20077;-40
2021/05/27 09:18:55;;;;;;;5.80;0.25;;;35.00;22.10;;;;;;4389647;32;20526;-39
2021/05/27 09:21:36;;;;;;;3.75;0.30;;;35.20;21.60;;;;;;4383799;32;20088;-41
2021/05/27 09:24:03;;;;;;;1.98;0.47;;;35.40;21.80;;;;;;4390134;32;20057;-41
2021/05/27 09:26:29;;;;;;;2.17;0.57;;;35.50;22.90;;;;;;4404761;32;20142;-40
2021/05/27 09:29:12;;;;;;;6.30;0.30;;;35.60;23.40;;;;;;4404751;32;20531;-41
2021/05/27 09:32:04;;;;;;;0.43;0.30;;;35.90;22.60;;;;;;4390706;32;20137;-40
2021/05/27 09:34:48;;;;;;;4.47;0.60;;;36.20;22.60;;;;;;4390908;32;20114;-42
2021/05/27 09:37:31;;;;;;;3.53;0.40;;;36.50;22.70;;;;;;4404577;32;20061;-41
2021/05/27 09:39:59;;;;;;;5.78;0.60;;;36.90;22.60;;;;;;4404076;32;20071;-43
2021/05/27 09:42:26;;;;;;;0.82;0.30;;;36.90;22.00;;;;;;4404106;32;20075;-43
2021/05/27 09:44:53;;;;;;;0.40;0.10;;;36.70;21.70;;;;;;4390070;32;20080;-41
2021/05/27 09:47:30;;;;;;;1.95;0.20;;;36.50;20.60;;;;;;4378199;32;20062;-42
2021/05/27 09:49:58;;;;;;;1.58;0.28;;;36.50;20.90;;;;;;4404468;32;20052;-42
2021/05/27 09:52:26;;;;;;;0.57;0.30;;;36.50;20.80;;;;;;4404172;32;20077;-41
2021/05/27 09:54:55;;;;;;;1.95;0.20;;;36.50;20.40;;;;;;4390153;32;20072;-41
2021/05/27 09:57:28;;;;;;;7.25;0.82;;;36.50;20.80;;;;;;4404451;32;20615;-41
2021/05/27 09:59:55;;;;;;;2.87;0.30;;;36.50;20.70;;;;;;4404117;32;20056;-42
2021/05/27 10:02:22;;;;;;;1.95;0.43;;;36.40;20.30;;;;;;4404364;32;20070;-41
2021/05/27 10:04:58;;;;;;;1.37;0.30;;;36.20;20.50;;;;;;4390311;32;20066;-41
2021/05/27 10:07:38;;;;;;;0.20;0.20;;;36.20;21.00;;;;;;4403797;32;20077;-41
2021/05/27 10:10:08;;;;;;;4.68;0.20;;;36.00;21.20;;;;;;4404113;32;20065;-41
2021/05/27 10:12:41;;;;;;;0.68;0.35;;;35.90;20.70;;;;;;4400881;32;20163;-41
2021/05/27 10:15:14;;;;;;;4.45;0.20;;;35.90;20.70;;;;;;4401518;32;20068;-40
2021/05/27 10:17:41;;;;;;;0.20;0.20;;;35.80;20.90;;;;;;4388649;32;20520;-41
2021/05/27 10:20:10;;;;;;;1.60;0.88;;;35.80;20.90;;;;;;4399872;32;20152;-43
2021/05/27 10:22:37;;;;;;;0.73;0.40;;;35.80;21.10;;;;;;4386296;32;20153;-41
2021/05/27 10:25:08;;;;;;;0.65;0.10;;;35.80;20.90;;;;;;4373088;32;20154;-40
2021/05/27 10:27:36;;;;;;;3.03;0.20;;;35.90;20.90;;;;;;4385873;32;20145;-40
2021/05/27 10:30:04;;;;;;;0.88;0.20;;;36.00;20.50;;;;;;4373166;32;20084;-41
2021/05/27 10:32:31;;;;;;;3.22;0.47;;;36.00;20.70;;;;;;4385936;32;20064;-41
2021/05/27 10:34:57;;;;;;;0.10;0.10;;;35.90;21.00;;;;;;4373282;32;20652;-40
2021/05/27 10:37:39;;;;;;;4.53;0.20;;;35.90;20.80;;;;;;4385707;32;20072;-42
2021/05/27 10:40:31;;;;;;;3.08;0.75;;;36.00;21.00;;;;;;4385335;32;20086;-41
2021/05/27 10:45:37;;;;;;;1.55;0.20;;;36.30;20.60;;;;;;4386017;32;20060;-41
2021/05/27 10:48:16;;;;;;;0.17;0.10;;;36.30;20.40;;;;;;4385506;32;20554;-41
2021/05/27 10:51:18;;;;;;;2.60;0.20;;;36.30;20.60;;;;;;4376059;32;20055;-41
2021/05/27 10:53:48;;;;;;;3.20;0.20;;;36.30;20.60;;;;;;4373438;32;20148;-41
2021/05/27 10:56:20;;;;;;;3.37;0.25;;;36.30;20.60;;;;;;4371581;32;20077;-41
2021/05/27 10:58:52;;;;;;;0.80;0.40;;;36.50;20.70;;;;;;4373068;32;20490;-40
2021/05/27 11:01:31;;;;;;;0.10;0.10;;;36.60;20.40;;;;;;4373015;32;20084;-42
2021/05/27 11:04:08;;;;;;;0.10;0.10;;;36.70;20.40;;;;;;4373221;32;20064;-41
2021/05/27 11:06:39;;;;;;;0.88;0.20;;;36.60;20.30;;;;;;4373078;32;20096;-40
2021/05/27 11:09:12;;;;;;;0.70;0.10;;;36.60;20.30;;;;;;4372840;32;20074;-41
2021/05/27 11:11:48;;;;;;;0.37;0.10;;;36.40;20.20;;;;;;4372984;32;20074;-41
2021/05/27 11:14:27;;;;;;;2.22;0.20;;;36.30;20.50;;;;;;4373067;32;20085;-41
2021/05/27 11:17:06;;;;;;;4.20;0.30;;;36.10;20.50;;;;;;4371988;32;20049;-41
2021/05/27 11:25:14;;;;;;;0.10;0.10;;;36.60;21.50;;;;;;4357789;32;20066;-41
2021/05/27 11:27:53;;;;;;;4.00;0.50;;;36.50;20.60;;;;;;4358046;32;20156;-42
2021/05/27 11:30:24;;;;;;;2.17;0.40;;;36.50;21.40;;;;;;4358089;32;20054;-42
2021/05/27 11:33:29;;;;;;;1.67;0.30;;;36.50;21.60;;;;;;4357748;32;20090;-41
2021/05/27 11:36:00;;;;;;;2.17;0.30;;;36.60;21.70;;;;;;4354999;32;20074;-42
2021/05/27 11:38:32;;;;;;;1.42;0.30;;;36.60;21.70;;;;;;4369460;32;20097;-43
2021/05/27 11:41:08;;;;;;;2.15;0.30;;;36.50;21.50;;;;;;4369861;32;20080;-41
2021/05/27 11:43:42;;;;;;;2.58;0.28;;;36.50;21.40;;;;;;4358338;32;20093;-41
2021/05/27 11:46:19;;;;;;;4.45;0.40;;;36.70;22.40;;;;;;4358144;32;20662;-42
2021/05/27 11:51:26;;;;;;;1.67;0.30;;;36.60;22.20;;;;;;4358643;32;20515;-41
2021/05/27 11:53:56;;;;;;;1.15;0.30;;;36.70;21.90;;;;;;4370019;32;20090;-44
2021/05/27 11:56:44;;;;;;;3.15;0.40;;;36.70;21.80;;;;;;4370461;32;20096;-42
2021/05/27 11:59:17;;;;;;;2.35;0.30;;;36.60;21.80;;;;;;4370152;32;20107;-41
2021/05/27 12:01:45;;;;;;;2.85;0.30;;;36.30;21.50;;;;;;4372863;32;20065;-41
2021/05/27 12:04:19;;;;;;;1.40;0.30;;;35.90;21.80;;;;;;4348523;32;20108;-42
2021/05/27 12:07:13;;;;;;;6.03;0.30;;;35.60;22.00;;;;;;4373235;32;20073;-42
2021/05/27 12:09:43;;;;;;;1.75;0.28;;;35.60;22.20;;;;;;4365502;32;20154;-42
2021/05/27 12:12:27;;;;;;;1.35;0.62;;;35.60;22.30;;;;;;4360725;32;20071;-42
2021/05/27 12:14:58;;;;;;;2.78;0.30;;;35.70;22.50;;;;;;4360736;32;20486;-41
2021/05/27 12:17:41;;;;;;;1.15;0.37;;;35.60;22.70;;;;;;4360451;32;20473;-41
2021/05/27 12:20:10;;;;;;;1.92;0.30;;;35.40;22.90;;;;;;4361572;32;20548;-42
2021/05/27 12:23:07;;;;;;;2.60;0.30;;;35.20;23.10;;;;;;4375848;32;20498;-42
2021/05/27 12:25:34;;;;;;;1.37;0.30;;;35.20;23.10;;;;;;4375589;32;20093;-41
2021/05/27 12:28:03;;;;;;;2.33;0.50;;;35.00;23.20;;;;;;4375495;32;20066;-41
2021/05/27 12:30:37;;;;;;;1.00;0.30;;;34.90;23.30;;;;;;4373880;32;20062;-41
2021/05/27 12:33:09;;;;;;;2.10;0.30;;;34.70;23.10;;;;;;4373989;32;20054;-41
2021/05/27 12:35:38;;;;;;;3.97;0.40;;;34.40;23.30;;;;;;4374959;32;20128;-41
2021/05/27 12:38:06;;;;;;;4.47;0.40;;;34.10;23.50;;;;;;4384781;32;20057;-40
2021/05/27 12:40:40;;;;;;;2.95;0.50;;;34.00;23.60;;;;;;4405015;32;20068;-41
2021/05/27 12:43:21;;;;;;;1.02;0.50;;;34.00;23.50;;;;;;4391321;32;20090;-40
2021/05/27 12:45:48;;;;;;;1.75;1.05;;;34.00;23.40;;;;;;4405487;32;20054;-41
2021/05/27 12:48:28;;;;;;;1.58;0.40;;;34.10;22.90;;;;;;4405411;32;20616;-41
2021/05/27 12:53:35;;;;;;;0.68;0.55;;;34.10;23.30;;;;;;4404815;32;20157;-41
2021/05/27 12:56:22;;;;;;;4.87;0.30;;;34.20;23.00;;;;;;4405219;32;20478;-42
2021/05/27 12:58:54;;;;;;;3.90;0.40;;;34.30;23.00;;;;;;4391218;32;20596;-41
2021/05/27 13:01:36;;;;;;;2.90;0.30;;;34.10;23.10;;;;;;4404493;32;20148;-41
2021/05/27 13:04:05;;;;;;;5.47;0.40;;;34.00;23.50;;;;;;4405222;32;20513;-41
2021/05/27 13:06:41;;;;;;;2.15;0.30;;;33.70;23.40;;;;;;4391124;32;20057;-41
2021/05/27 13:09:10;;;;;;;0.98;0.20;;;33.50;23.60;;;;;;4404729;32;20089;-40
2021/05/27 13:11:38;;;;;;;4.18;0.70;;;33.30;23.60;;;;;;4404347;32;20120;-41
2021/05/27 13:14:22;;;;;;;6.95;0.50;;;33.00;24.20;;;;;;4404992;32;20503;-40
2021/05/27 13:16:56;;;;;;;1.83;0.30;;;32.70;24.40;;;;;;4404997;32;20084;-41